sensor_id;sensor_type;location;lat;lon;timestamp;temperature;humidity
32348;DHT22;18821;44.800;10.326;2022-07-19T00:02:07;26.00;99.90
32348;DHT22;18821;44.800;10.326;2022-07-19T00:04:34;26.00;99.90
32348;DHT22;18821;44.800;10.326;2022-07-19T00:07:00;25.90;99.90
32348;DHT22;18821;44.800;10.326;2022-07-19T00:09:27;25.90;99.90
32348;DHT22;18821;44.800;10.326;2022-07-19T00:11:54;25.90;99.90
32348;DHT22;18821;44.800;10.326;2022-07-19T00:14:20;26.00;99.90
32348;DHT22;18821;44.800;10.326;2022-07-19T00:16:47;25.90;99.90
32348;DHT22;18821;44.800;10.326;2022-07-19T00:19:13;25.90;99.90
32348;DHT22;18821;44.800;10.326;2022-07-19T00:21:39;25.80;99.90
32348;DHT22;18821;44.800;10.326;2022-07-19T00:24:05;25.80;99.90
32348;DHT22;18821;44.800;10.326;2022-07-19T00:26:31;25.80;99.90
32348;DHT22;18821;44.800;10.326;2022-07-19T00:28:57;25.70;99.90
32348;DHT22;18821;44.800;10.326;2022-07-19T00:31:24;25.70;99.90
32348;DHT22;18821;44.800;10.326;2022-07-19T00:33:50;25.70;99.90
32348;DHT22;18821;44.800;10.326;2022-07-19T00:36:17;25.70;99.90
32348;DHT22;18821;44.800;10.326;2022-07-19T00:38:43;25.70;99.90
32348;DHT22;18821;44.800;10.326;2022-07-19T00:41:09;25.70;99.90
32348;DHT22;18821;44.800;10.326;2022-07-19T00:43:35;25.60;99.90
32348;DHT22;18821;44.800;10.326;2022-07-19T00:46:01;25.60;99.90
32348;DHT22;18821;44.800;10.326;2022-07-19T00:48:27;25.50;99.90
32348;DHT22;18821;44.800;10.326;2022-07-19T00:50:52;25.50;99.90
32348;DHT22;18821;44.800;10.326;2022-07-19T00:53:19;25.50;99.90
32348;DHT22;18821;44.800;10.326;2022-07-19T00:55:45;25.50;99.90
32348;DHT22;18821;44.800;10.326;2022-07-19T00:58:12;25.50;99.90
32348;DHT22;18821;44.800;10.326;2022-07-19T01:00:41;25.40;99.90
32348;DHT22;18821;44.800;10.326;2022-07-19T01:03:08;25.30;99.90
32348;DHT22;18821;44.800;10.326;2022-07-19T01:05:34;25.10;99.90
32348;DHT22;18821;44.800;10.326;2022-07-19T01:08:00;25.10;99.90
32348;DHT22;18821;44.800;10.326;2022-07-19T01:10:26;25.00;99.90
32348;DHT22;18821;44.800;10.326;2022-07-19T01:12:53;24.90;99.90
32348;DHT22;18821;44.800;10.326;2022-07-19T01:15:24;24.90;99.90
32348;DHT22;18821;44.800;10.326;2022-07-19T01:17:52;24.80;99.90
32348;DHT22;18821;44.800;10.326;2022-07-19T01:20:20;24.70;99.90
32348;DHT22;18821;44.800;10.326;2022-07-19T01:22:47;24.70;99.90
32348;DHT22;18821;44.800;10.326;2022-07-19T01:25:14;24.70;99.90
32348;DHT22;18821;44.800;10.326;2022-07-19T01:27:46;24.70;99.90
32348;DHT22;18821;44.800;10.326;2022-07-19T01:30:21;24.80;99.90
32348;DHT22;18821;44.800;10.326;2022-07-19T01:32:48;24.80;99.90
32348;DHT22;18821;44.800;10.326;2022-07-19T01:35:14;24.90;99.90
32348;DHT22;18821;44.800;10.326;2022-07-19T01:37:41;25.00;99.90
32348;DHT22;18821;44.800;10.326;2022-07-19T01:40:09;25.00;99.90
32348;DHT22;18821;44.800;10.326;2022-07-19T01:42:36;25.10;99.90
32348;DHT22;18821;44.800;10.326;2022-07-19T01:45:03;25.00;99.90
32348;DHT22;18821;44.800;10.326;2022-07-19T01:47:29;25.00;99.90
32348;DHT22;18821;44.800;10.326;2022-07-19T01:49:56;25.00;99.90
32348;DHT22;18821;44.800;10.326;2022-07-19T01:52:21;24.90;99.90
32348;DHT22;18821;44.800;10.326;2022-07-19T01:54:47;24.90;99.90
32348;DHT22;18821;44.800;10.326;2022-07-19T01:57:13;24.70;99.90
32348;DHT22;18821;44.800;10.326;2022-07-19T01:59:39;24.70;99.90
32348;DHT22;18821;44.800;10.326;2022-07-19T02:02:05;24.70;99.90
32348;DHT22;18821;44.800;10.326;2022-07-19T02:04:32;24.70;99.90
32348;DHT22;18821;44.800;10.326;2022-07-19T02:06:58;24.80;99.90
32348;DHT22;18821;44.800;10.326;2022-07-19T02:09:24;24.80;99.90
32348;DHT22;18821;44.800;10.326;2022-07-19T02:11:50;24.80;99.90
32348;DHT22;18821;44.800;10.326;2022-07-19T02:14:17;24.80;99.90
32348;DHT22;18821;44.800;10.326;2022-07-19T02:16:43;24.70;99.90
32348;DHT22;18821;44.800;10.326;2022-07-19T02:19:09;24.80;99.90
32348;DHT22;18821;44.800;10.326;2022-07-19T02:21:37;24.70;99.90
32348;DHT22;18821;44.800;10.326;2022-07-19T02:24:05;24.60;99.90
32348;DHT22;18821;44.800;10.326;2022-07-19T02:26:31;24.60;99.90
32348;DHT22;18821;44.800;10.326;2022-07-19T02:28:57;24.50;99.90
32348;DHT22;18821;44.800;10.326;2022-07-19T02:31:23;24.60;99.90
32348;DHT22;18821;44.800;10.326;2022-07-19T02:33:49;24.50;99.90
32348;DHT22;18821;44.800;10.326;2022-07-19T02:36:15;24.50;99.90
32348;DHT22;18821;44.800;10.326;2022-07-19T02:38:43;24.40;99.90
32348;DHT22;18821;44.800;10.326;2022-07-19T02:41:09;24.30;99.90
32348;DHT22;18821;44.800;10.326;2022-07-19T02:43:35;24.30;99.90
32348;DHT22;18821;44.800;10.326;2022-07-19T02:46:01;24.10;99.90
32348;DHT22;18821;44.800;10.326;2022-07-19T02:48:27;24.00;99.90
32348;DHT22;18821;44.800;10.326;2022-07-19T02:50:53;24.10;99.90
32348;DHT22;18821;44.800;10.326;2022-07-19T02:53:19;24.10;99.90
32348;DHT22;18821;44.800;10.326;2022-07-19T02:55:45;24.10;99.90
32348;DHT22;18821;44.800;10.326;2022-07-19T02:58:11;24.20;99.90
32348;DHT22;18821;44.800;10.326;2022-07-19T03:00:37;24.30;99.90
32348;DHT22;18821;44.800;10.326;2022-07-19T03:03:03;24.20;99.90
32348;DHT22;18821;44.800;10.326;2022-07-19T03:05:48;24.30;99.90
32348;DHT22;18821;44.800;10.326;2022-07-19T03:08:15;24.20;99.90
32348;DHT22;18821;44.800;10.326;2022-07-19T03:10:41;24.10;99.90
32348;DHT22;18821;44.800;10.326;2022-07-19T03:13:07;24.10;99.90
32348;DHT22;18821;44.800;10.326;2022-07-19T03:15:35;23.90;99.90
32348;DHT22;18821;44.800;10.326;2022-07-19T03:18:02;23.90;99.90
32348;DHT22;18821;44.800;10.326;2022-07-19T03:20:28;23.90;99.90
32348;DHT22;18821;44.800;10.326;2022-07-19T03:22:54;23.80;99.90
32348;DHT22;18821;44.800;10.326;2022-07-19T03:25:20;23.80;99.90
32348;DHT22;18821;44.800;10.326;2022-07-19T03:27:45;23.80;99.90
32348;DHT22;18821;44.800;10.326;2022-07-19T03:30:11;23.80;99.90
32348;DHT22;18821;44.800;10.326;2022-07-19T03:32:37;23.90;99.90
32348;DHT22;18821;44.800;10.326;2022-07-19T03:35:04;23.90;99.90
32348;DHT22;18821;44.800;10.326;2022-07-19T03:37:30;23.80;99.90
32348;DHT22;18821;44.800;10.326;2022-07-19T03:39:56;23.80;99.90
32348;DHT22;18821;44.800;10.326;2022-07-19T03:42:22;23.70;99.90
32348;DHT22;18821;44.800;10.326;2022-07-19T03:44:48;23.50;99.90
32348;DHT22;18821;44.800;10.326;2022-07-19T03:47:13;23.50;99.90
32348;DHT22;18821;44.800;10.326;2022-07-19T03:49:39;23.50;99.90
32348;DHT22;18821;44.800;10.326;2022-07-19T03:52:05;23.50;99.90
32348;DHT22;18821;44.800;10.326;2022-07-19T03:54:31;23.50;99.90
32348;DHT22;18821;44.800;10.326;2022-07-19T03:56:57;23.60;99.90
32348;DHT22;18821;44.800;10.326;2022-07-19T03:59:23;23.60;99.90
32348;DHT22;18821;44.800;10.326;2022-07-19T04:01:50;23.70;99.90
32348;DHT22;18821;44.800;10.326;2022-07-19T04:04:16;23.70;99.90
32348;DHT22;18821;44.800;10.326;2022-07-19T04:06:42;23.70;99.90
32348;DHT22;18821;44.800;10.326;2022-07-19T04:09:08;23.60;99.90
32348;DHT22;18821;44.800;10.326;2022-07-19T04:11:34;23.50;99.90
32348;DHT22;18821;44.800;10.326;2022-07-19T04:13:59;23.60;99.90
32348;DHT22;18821;44.800;10.326;2022-07-19T04:16:25;23.50;99.90
32348;DHT22;18821;44.800;10.326;2022-07-19T04:18:51;23.60;99.90
32348;DHT22;18821;44.800;10.326;2022-07-19T04:21:17;23.50;99.90
32348;DHT22;18821;44.800;10.326;2022-07-19T04:23:43;23.50;99.90
32348;DHT22;18821;44.800;10.326;2022-07-19T04:26:09;23.40;99.90
32348;DHT22;18821;44.800;10.326;2022-07-19T04:28:35;23.40;99.90
32348;DHT22;18821;44.800;10.326;2022-07-19T04:31:01;23.50;99.90
32348;DHT22;18821;44.800;10.326;2022-07-19T04:33:27;23.60;99.90
32348;DHT22;18821;44.800;10.326;2022-07-19T04:35:53;23.50;99.90
32348;DHT22;18821;44.800;10.326;2022-07-19T04:38:22;23.60;99.90
32348;DHT22;18821;44.800;10.326;2022-07-19T04:40:48;23.50;99.90
32348;DHT22;18821;44.800;10.326;2022-07-19T04:43:16;23.40;99.90
32348;DHT22;18821;44.800;10.326;2022-07-19T04:45:42;23.50;99.90
32348;DHT22;18821;44.800;10.326;2022-07-19T04:48:13;23.60;99.90
32348;DHT22;18821;44.800;10.326;2022-07-19T04:50:39;23.70;99.90
32348;DHT22;18821;44.800;10.326;2022-07-19T04:53:06;23.70;99.90
32348;DHT22;18821;44.800;10.326;2022-07-19T04:55:33;23.70;99.90
32348;DHT22;18821;44.800;10.326;2022-07-19T04:57:59;23.70;99.90
32348;DHT22;18821;44.800;10.326;2022-07-19T05:00:25;23.80;99.90
32348;DHT22;18821;44.800;10.326;2022-07-19T05:02:54;23.80;99.90
32348;DHT22;18821;44.800;10.326;2022-07-19T05:05:20;23.90;99.90
32348;DHT22;18821;44.800;10.326;2022-07-19T05:07:46;23.80;99.90
32348;DHT22;18821;44.800;10.326;2022-07-19T05:10:12;23.80;99.90
32348;DHT22;18821;44.800;10.326;2022-07-19T05:12:40;23.80;99.90
32348;DHT22;18821;44.800;10.326;2022-07-19T05:15:07;23.80;99.90
32348;DHT22;18821;44.800;10.326;2022-07-19T05:17:33;24.00;99.90
32348;DHT22;18821;44.800;10.326;2022-07-19T05:19:59;24.20;99.90
32348;DHT22;18821;44.800;10.326;2022-07-19T05:22:25;24.30;99.90
32348;DHT22;18821;44.800;10.326;2022-07-19T05:24:52;24.40;99.90
32348;DHT22;18821;44.800;10.326;2022-07-19T05:27:19;24.40;99.90
32348;DHT22;18821;44.800;10.326;2022-07-19T05:29:45;24.50;99.90
32348;DHT22;18821;44.800;10.326;2022-07-19T05:32:11;24.70;99.90
32348;DHT22;18821;44.800;10.326;2022-07-19T05:34:37;24.90;99.90
32348;DHT22;18821;44.800;10.326;2022-07-19T05:37:04;25.00;99.90
32348;DHT22;18821;44.800;10.326;2022-07-19T05:39:30;24.90;99.90
32348;DHT22;18821;44.800;10.326;2022-07-19T05:41:56;24.80;99.90
32348;DHT22;18821;44.800;10.326;2022-07-19T05:44:22;24.70;99.90
32348;DHT22;18821;44.800;10.326;2022-07-19T05:46:48;24.70;99.90
32348;DHT22;18821;44.800;10.326;2022-07-19T05:49:14;25.20;99.90
32348;DHT22;18821;44.800;10.326;2022-07-19T05:51:40;25.90;99.90
32348;DHT22;18821;44.800;10.326;2022-07-19T05:54:06;26.20;99.90
32348;DHT22;18821;44.800;10.326;2022-07-19T05:56:33;26.50;99.90
32348;DHT22;18821;44.800;10.326;2022-07-19T05:58:59;26.50;99.90
32348;DHT22;18821;44.800;10.326;2022-07-19T06:01:25;26.50;99.90
32348;DHT22;18821;44.800;10.326;2022-07-19T06:03:59;26.70;99.90
32348;DHT22;18821;44.800;10.326;2022-07-19T06:06:34;26.70;99.90
32348;DHT22;18821;44.800;10.326;2022-07-19T06:09:02;26.50;99.90
32348;DHT22;18821;44.800;10.326;2022-07-19T06:11:28;27.00;99.90
32348;DHT22;18821;44.800;10.326;2022-07-19T06:13:54;27.30;99.90
32348;DHT22;18821;44.800;10.326;2022-07-19T06:16:21;27.80;99.90
32348;DHT22;18821;44.800;10.326;2022-07-19T06:18:47;27.90;99.90
32348;DHT22;18821;44.800;10.326;2022-07-19T06:21:15;28.40;99.90
32348;DHT22;18821;44.800;10.326;2022-07-19T06:23:43;28.70;99.90
32348;DHT22;18821;44.800;10.326;2022-07-19T06:26:10;28.50;99.90
32348;DHT22;18821;44.800;10.326;2022-07-19T06:28:37;28.70;99.90
32348;DHT22;18821;44.800;10.326;2022-07-19T06:31:03;28.40;99.90
32348;DHT22;18821;44.800;10.326;2022-07-19T06:33:28;28.50;99.90
32348;DHT22;18821;44.800;10.326;2022-07-19T06:35:55;29.20;99.90
32348;DHT22;18821;44.800;10.326;2022-07-19T06:38:21;29.40;99.90
32348;DHT22;18821;44.800;10.326;2022-07-19T06:40:46;29.40;99.90
32348;DHT22;18821;44.800;10.326;2022-07-19T06:43:13;29.00;99.90
32348;DHT22;18821;44.800;10.326;2022-07-19T06:45:39;29.40;99.90
32348;DHT22;18821;44.800;10.326;2022-07-19T06:48:05;30.00;99.90
32348;DHT22;18821;44.800;10.326;2022-07-19T06:50:31;30.20;99.90
32348;DHT22;18821;44.800;10.326;2022-07-19T06:52:57;29.70;99.90
32348;DHT22;18821;44.800;10.326;2022-07-19T06:55:23;29.50;99.90
32348;DHT22;18821;44.800;10.326;2022-07-19T06:57:50;29.20;99.90
32348;DHT22;18821;44.800;10.326;2022-07-19T07:00:16;28.70;99.90
32348;DHT22;18821;44.800;10.326;2022-07-19T07:02:42;28.10;99.90
32348;DHT22;18821;44.800;10.326;2022-07-19T07:05:10;27.80;99.90
32348;DHT22;18821;44.800;10.326;2022-07-19T07:07:36;27.80;99.90
32348;DHT22;18821;44.800;10.326;2022-07-19T07:10:04;27.90;99.90
32348;DHT22;18821;44.800;10.326;2022-07-19T07:12:32;27.70;99.90
32348;DHT22;18821;44.800;10.326;2022-07-19T07:14:58;27.50;99.90
32348;DHT22;18821;44.800;10.326;2022-07-19T07:17:24;27.80;99.90
32348;DHT22;18821;44.800;10.326;2022-07-19T07:19:50;28.00;99.90
32348;DHT22;18821;44.800;10.326;2022-07-19T07:22:16;28.20;99.90
32348;DHT22;18821;44.800;10.326;2022-07-19T07:24:42;27.60;99.90
32348;DHT22;18821;44.800;10.326;2022-07-19T07:27:08;27.50;99.90
32348;DHT22;18821;44.800;10.326;2022-07-19T07:29:34;27.70;99.90
32348;DHT22;18821;44.800;10.326;2022-07-19T07:32:00;27.80;99.90
32348;DHT22;18821;44.800;10.326;2022-07-19T07:34:26;28.20;99.90
32348;DHT22;18821;44.800;10.326;2022-07-19T07:36:52;28.50;99.90
32348;DHT22;18821;44.800;10.326;2022-07-19T07:39:20;28.80;99.90
32348;DHT22;18821;44.800;10.326;2022-07-19T07:41:46;28.90;99.90
32348;DHT22;18821;44.800;10.326;2022-07-19T07:44:12;28.80;99.90
32348;DHT22;18821;44.800;10.326;2022-07-19T07:46:38;28.90;99.90
32348;DHT22;18821;44.800;10.326;2022-07-19T07:49:04;28.90;99.90
32348;DHT22;18821;44.800;10.326;2022-07-19T07:51:30;29.00;99.70
32348;DHT22;18821;44.800;10.326;2022-07-19T07:53:58;29.10;99.60
32348;DHT22;18821;44.800;10.326;2022-07-19T07:56:25;29.20;99.60
32348;DHT22;18821;44.800;10.326;2022-07-19T07:58:51;29.30;99.70
32348;DHT22;18821;44.800;10.326;2022-07-19T08:01:17;29.40;99.50
32348;DHT22;18821;44.800;10.326;2022-07-19T08:03:43;29.50;99.00
32348;DHT22;18821;44.800;10.326;2022-07-19T08:06:09;29.60;99.10
32348;DHT22;18821;44.800;10.326;2022-07-19T08:08:37;29.70;99.20
32348;DHT22;18821;44.800;10.326;2022-07-19T08:11:04;29.60;98.90
32348;DHT22;18821;44.800;10.326;2022-07-19T08:13:30;29.60;98.80
32348;DHT22;18821;44.800;10.326;2022-07-19T08:15:56;29.70;99.10
32348;DHT22;18821;44.800;10.326;2022-07-19T08:18:22;29.70;99.20
32348;DHT22;18821;44.800;10.326;2022-07-19T08:20:48;29.80;98.90
32348;DHT22;18821;44.800;10.326;2022-07-19T08:23:14;29.40;98.70
32348;DHT22;18821;44.800;10.326;2022-07-19T08:25:40;29.40;98.90
32348;DHT22;18821;44.800;10.326;2022-07-19T08:28:05;29.60;98.80
32348;DHT22;18821;44.800;10.326;2022-07-19T08:30:32;29.70;98.80
32348;DHT22;18821;44.800;10.326;2022-07-19T08:32:58;29.80;98.10
32348;DHT22;18821;44.800;10.326;2022-07-19T08:35:24;29.80;97.50
32348;DHT22;18821;44.800;10.326;2022-07-19T08:37:50;29.80;97.80
32348;DHT22;18821;44.800;10.326;2022-07-19T08:40:15;30.00;97.50
32348;DHT22;18821;44.800;10.326;2022-07-19T08:42:41;30.00;97.30
32348;DHT22;18821;44.800;10.326;2022-07-19T08:45:09;30.10;96.90
32348;DHT22;18821;44.800;10.326;2022-07-19T08:47:37;30.00;96.90
32348;DHT22;18821;44.800;10.326;2022-07-19T08:50:05;30.20;97.00
32348;DHT22;18821;44.800;10.326;2022-07-19T08:52:33;30.30;96.80
32348;DHT22;18821;44.800;10.326;2022-07-19T08:54:59;30.30;96.60
32348;DHT22;18821;44.800;10.326;2022-07-19T08:57:25;30.40;96.40
32348;DHT22;18821;44.800;10.326;2022-07-19T09:00:11;30.40;96.30
32348;DHT22;18821;44.800;10.326;2022-07-19T09:02:38;30.30;95.80
32348;DHT22;18821;44.800;10.326;2022-07-19T09:05:09;30.30;95.90
32348;DHT22;18821;44.800;10.326;2022-07-19T09:07:39;30.50;95.40
32348;DHT22;18821;44.800;10.326;2022-07-19T09:10:20;30.50;95.90
32348;DHT22;18821;44.800;10.326;2022-07-19T09:13:14;30.70;95.70
32348;DHT22;18821;44.800;10.326;2022-07-19T09:15:51;30.60;95.70
32348;DHT22;18821;44.800;10.326;2022-07-19T09:18:24;30.90;95.30
32348;DHT22;18821;44.800;10.326;2022-07-19T09:20:53;31.10;94.80
32348;DHT22;18821;44.800;10.326;2022-07-19T09:23:19;31.20;94.80
32348;DHT22;18821;44.800;10.326;2022-07-19T09:25:48;31.20;94.70
32348;DHT22;18821;44.800;10.326;2022-07-19T09:28:16;31.10;95.10
32348;DHT22;18821;44.800;10.326;2022-07-19T09:30:44;31.10;95.40
32348;DHT22;18821;44.800;10.326;2022-07-19T09:33:17;31.20;95.10
32348;DHT22;18821;44.800;10.326;2022-07-19T09:35:52;31.50;94.60
32348;DHT22;18821;44.800;10.326;2022-07-19T09:38:32;31.60;94.10
32348;DHT22;18821;44.800;10.326;2022-07-19T09:41:13;31.70;93.40
32348;DHT22;18821;44.800;10.326;2022-07-19T09:43:54;31.70;93.60
32348;DHT22;18821;44.800;10.326;2022-07-19T09:46:33;31.80;93.70
32348;DHT22;18821;44.800;10.326;2022-07-19T09:49:19;31.90;94.00
32348;DHT22;18821;44.800;10.326;2022-07-19T09:51:48;31.80;94.20
32348;DHT22;18821;44.800;10.326;2022-07-19T09:54:16;31.80;93.90
32348;DHT22;18821;44.800;10.326;2022-07-19T09:56:44;31.90;93.90
32348;DHT22;18821;44.800;10.326;2022-07-19T09:59:10;31.70;93.90
32348;DHT22;18821;44.800;10.326;2022-07-19T10:01:37;31.70;93.70
32348;DHT22;18821;44.800;10.326;2022-07-19T10:04:17;31.90;93.50
32348;DHT22;18821;44.800;10.326;2022-07-19T10:06:44;31.90;93.10
32348;DHT22;18821;44.800;10.326;2022-07-19T10:09:13;31.90;92.90
32348;DHT22;18821;44.800;10.326;2022-07-19T10:11:40;31.90;93.30
32348;DHT22;18821;44.800;10.326;2022-07-19T10:14:06;32.00;93.20
32348;DHT22;18821;44.800;10.326;2022-07-19T10:21:54;32.20;92.40
32348;DHT22;18821;44.800;10.326;2022-07-19T10:24:52;32.20;92.10
32348;DHT22;18821;44.800;10.326;2022-07-19T10:27:44;32.20;92.30
32348;DHT22;18821;44.800;10.326;2022-07-19T10:32:37;32.60;91.90
32348;DHT22;18821;44.800;10.326;2022-07-19T10:43:04;33.00;91.50
32348;DHT22;18821;44.800;10.326;2022-07-19T10:45:35;33.00;91.40
32348;DHT22;18821;44.800;10.326;2022-07-19T10:50:43;32.90;90.70
32348;DHT22;18821;44.800;10.326;2022-07-19T10:53:10;32.90;91.10
32348;DHT22;18821;44.800;10.326;2022-07-19T10:55:36;33.10;91.00
32348;DHT22;18821;44.800;10.326;2022-07-19T11:00:33;33.00;90.50
32348;DHT22;18821;44.800;10.326;2022-07-19T11:05:54;33.00;90.50
32348;DHT22;18821;44.800;10.326;2022-07-19T11:08:36;33.10;90.40
32348;DHT22;18821;44.800;10.326;2022-07-19T11:11:12;33.10;90.20
32348;DHT22;18821;44.800;10.326;2022-07-19T11:13:42;32.80;90.50
32348;DHT22;18821;44.800;10.326;2022-07-19T11:16:08;33.10;90.30
32348;DHT22;18821;44.800;10.326;2022-07-19T11:18:34;33.20;90.10
32348;DHT22;18821;44.800;10.326;2022-07-19T11:21:02;33.30;90.20
32348;DHT22;18821;44.800;10.326;2022-07-19T11:23:31;33.30;90.20
32348;DHT22;18821;44.800;10.326;2022-07-19T11:26:12;33.40;89.30
32348;DHT22;18821;44.800;10.326;2022-07-19T11:28:40;33.20;89.80
32348;DHT22;18821;44.800;10.326;2022-07-19T11:31:18;33.40;89.90
32348;DHT22;18821;44.800;10.326;2022-07-19T11:33:45;33.40;90.10
32348;DHT22;18821;44.800;10.326;2022-07-19T11:36:17;33.50;90.20
32348;DHT22;18821;44.800;10.326;2022-07-19T11:41:20;33.60;90.10
32348;DHT22;18821;44.800;10.326;2022-07-19T11:44:03;33.60;90.10
32348;DHT22;18821;44.800;10.326;2022-07-19T11:46:37;33.80;89.90
32348;DHT22;18821;44.800;10.326;2022-07-19T11:49:05;33.90;88.90
32348;DHT22;18821;44.800;10.326;2022-07-19T11:51:32;34.00;88.90
32348;DHT22;18821;44.800;10.326;2022-07-19T11:54:00;34.00;88.70
32348;DHT22;18821;44.800;10.326;2022-07-19T11:56:31;33.80;89.70
32348;DHT22;18821;44.800;10.326;2022-07-19T11:59:01;34.10;89.10
32348;DHT22;18821;44.800;10.326;2022-07-19T12:01:31;34.20;89.00
32348;DHT22;18821;44.800;10.326;2022-07-19T12:03:59;33.90;88.50
32348;DHT22;18821;44.800;10.326;2022-07-19T12:06:40;34.10;88.60
32348;DHT22;18821;44.800;10.326;2022-07-19T12:09:08;34.10;87.60
32348;DHT22;18821;44.800;10.326;2022-07-19T12:11:44;34.10;88.20
32348;DHT22;18821;44.800;10.326;2022-07-19T12:14:24;33.90;88.10
32348;DHT22;18821;44.800;10.326;2022-07-19T12:17:18;34.10;87.70
32348;DHT22;18821;44.800;10.326;2022-07-19T12:19:50;34.10;88.40
32348;DHT22;18821;44.800;10.326;2022-07-19T12:22:33;34.40;88.00
32348;DHT22;18821;44.800;10.326;2022-07-19T12:25:00;34.30;87.90
32348;DHT22;18821;44.800;10.326;2022-07-19T12:27:26;34.40;87.40
32348;DHT22;18821;44.800;10.326;2022-07-19T12:29:56;34.40;87.50
32348;DHT22;18821;44.800;10.326;2022-07-19T12:32:37;34.30;88.20
32348;DHT22;18821;44.800;10.326;2022-07-19T12:35:05;34.40;87.50
32348;DHT22;18821;44.800;10.326;2022-07-19T12:37:34;34.40;87.50
32348;DHT22;18821;44.800;10.326;2022-07-19T12:40:06;34.50;86.50
32348;DHT22;18821;44.800;10.326;2022-07-19T12:45:19;34.60;86.50
32348;DHT22;18821;44.800;10.326;2022-07-19T12:47:47;34.70;86.70
32348;DHT22;18821;44.800;10.326;2022-07-19T12:50:33;34.70;85.70
32348;DHT22;18821;44.800;10.326;2022-07-19T12:53:01;34.70;83.80
32348;DHT22;18821;44.800;10.326;2022-07-19T12:55:29;34.60;84.40
32348;DHT22;18821;44.800;10.326;2022-07-19T12:57:57;34.70;84.80
32348;DHT22;18821;44.800;10.326;2022-07-19T13:00:25;34.80;85.60
32348;DHT22;18821;44.800;10.326;2022-07-19T13:02:52;34.80;85.90
32348;DHT22;18821;44.800;10.326;2022-07-19T13:05:19;34.90;85.00
32348;DHT22;18821;44.800;10.326;2022-07-19T13:07:46;34.70;84.90
32348;DHT22;18821;44.800;10.326;2022-07-19T13:10:12;34.80;84.70
32348;DHT22;18821;44.800;10.326;2022-07-19T13:12:40;35.00;85.50
32348;DHT22;18821;44.800;10.326;2022-07-19T13:15:07;35.20;85.70
32348;DHT22;18821;44.800;10.326;2022-07-19T13:17:33;35.00;85.00
32348;DHT22;18821;44.800;10.326;2022-07-19T13:19:59;35.10;85.80
32348;DHT22;18821;44.800;10.326;2022-07-19T13:22:25;35.00;86.10
32348;DHT22;18821;44.800;10.326;2022-07-19T13:24:51;35.10;84.70
32348;DHT22;18821;44.800;10.326;2022-07-19T13:27:17;35.00;83.00
32348;DHT22;18821;44.800;10.326;2022-07-19T13:29:43;35.10;83.10
32348;DHT22;18821;44.800;10.326;2022-07-19T13:32:09;35.20;82.60
32348;DHT22;18821;44.800;10.326;2022-07-19T13:34:36;35.40;82.80
32348;DHT22;18821;44.800;10.326;2022-07-19T13:37:02;35.50;82.20
32348;DHT22;18821;44.800;10.326;2022-07-19T13:39:29;35.60;81.80
32348;DHT22;18821;44.800;10.326;2022-07-19T13:41:55;35.60;82.70
32348;DHT22;18821;44.800;10.326;2022-07-19T13:44:21;35.60;82.40
32348;DHT22;18821;44.800;10.326;2022-07-19T13:46:50;35.40;80.40
32348;DHT22;18821;44.800;10.326;2022-07-19T13:49:17;35.50;80.10
32348;DHT22;18821;44.800;10.326;2022-07-19T13:51:43;35.60;80.30
32348;DHT22;18821;44.800;10.326;2022-07-19T13:54:09;35.50;81.90
32348;DHT22;18821;44.800;10.326;2022-07-19T13:56:36;35.30;81.90
32348;DHT22;18821;44.800;10.326;2022-07-19T13:59:02;35.50;82.00
32348;DHT22;18821;44.800;10.326;2022-07-19T14:01:30;35.50;81.40
32348;DHT22;18821;44.800;10.326;2022-07-19T14:03:56;35.50;81.00
32348;DHT22;18821;44.800;10.326;2022-07-19T14:06:22;35.40;80.50
32348;DHT22;18821;44.800;10.326;2022-07-19T14:08:48;35.50;80.10
32348;DHT22;18821;44.800;10.326;2022-07-19T14:11:14;35.30;81.50
32348;DHT22;18821;44.800;10.326;2022-07-19T14:13:42;35.30;81.40
32348;DHT22;18821;44.800;10.326;2022-07-19T14:16:08;35.40;82.20
32348;DHT22;18821;44.800;10.326;2022-07-19T14:18:34;35.40;82.50
32348;DHT22;18821;44.800;10.326;2022-07-19T14:21:00;35.50;82.70
32348;DHT22;18821;44.800;10.326;2022-07-19T14:23:27;35.30;82.90
32348;DHT22;18821;44.800;10.326;2022-07-19T14:25:53;35.40;83.20
32348;DHT22;18821;44.800;10.326;2022-07-19T14:28:19;35.50;83.10
32348;DHT22;18821;44.800;10.326;2022-07-19T14:30:45;35.50;82.70
32348;DHT22;18821;44.800;10.326;2022-07-19T14:33:11;35.50;82.50
32348;DHT22;18821;44.800;10.326;2022-07-19T14:35:37;35.30;82.50
32348;DHT22;18821;44.800;10.326;2022-07-19T14:38:03;35.30;82.50
32348;DHT22;18821;44.800;10.326;2022-07-19T14:40:30;35.20;82.10
32348;DHT22;18821;44.800;10.326;2022-07-19T14:42:56;35.30;81.70
32348;DHT22;18821;44.800;10.326;2022-07-19T14:45:22;35.50;81.60
32348;DHT22;18821;44.800;10.326;2022-07-19T14:47:49;35.50;81.30
32348;DHT22;18821;44.800;10.326;2022-07-19T14:50:15;35.30;81.60
32348;DHT22;18821;44.800;10.326;2022-07-19T14:52:41;35.50;81.70
32348;DHT22;18821;44.800;10.326;2022-07-19T14:55:09;35.30;81.70
32348;DHT22;18821;44.800;10.326;2022-07-19T14:57:36;35.40;82.10
32348;DHT22;18821;44.800;10.326;2022-07-19T15:00:04;35.40;82.10
32348;DHT22;18821;44.800;10.326;2022-07-19T15:02:31;35.20;82.10
32348;DHT22;18821;44.800;10.326;2022-07-19T15:04:57;35.20;82.90
32348;DHT22;18821;44.800;10.326;2022-07-19T15:07:24;35.10;82.40
32348;DHT22;18821;44.800;10.326;2022-07-19T15:09:51;35.10;82.70
32348;DHT22;18821;44.800;10.326;2022-07-19T15:12:17;35.20;82.70
32348;DHT22;18821;44.800;10.326;2022-07-19T15:14:44;35.20;81.90
32348;DHT22;18821;44.800;10.326;2022-07-19T15:17:09;35.20;81.60
32348;DHT22;18821;44.800;10.326;2022-07-19T15:19:35;35.30;81.90
32348;DHT22;18821;44.800;10.326;2022-07-19T15:22:02;35.30;82.40
32348;DHT22;18821;44.800;10.326;2022-07-19T15:24:29;35.40;82.80
32348;DHT22;18821;44.800;10.326;2022-07-19T15:26:55;35.30;83.20
32348;DHT22;18821;44.800;10.326;2022-07-19T15:29:21;35.30;84.00
32348;DHT22;18821;44.800;10.326;2022-07-19T15:31:47;35.30;83.80
32348;DHT22;18821;44.800;10.326;2022-07-19T15:34:13;35.30;83.80
32348;DHT22;18821;44.800;10.326;2022-07-19T15:36:39;35.20;83.30
32348;DHT22;18821;44.800;10.326;2022-07-19T15:39:05;35.20;83.60
32348;DHT22;18821;44.800;10.326;2022-07-19T15:41:32;35.30;83.00
32348;DHT22;18821;44.800;10.326;2022-07-19T15:43:59;35.30;83.50
32348;DHT22;18821;44.800;10.326;2022-07-19T15:46:26;35.30;82.80
32348;DHT22;18821;44.800;10.326;2022-07-19T15:49:01;35.40;83.20